sensor_id;sensor_type;location;lat;lon;timestamp;P1;durP1;ratioP1;P2;durP2;ratioP2
75535;SDS011;64119;52.070;20.804;2023-01-15T00:02:06;10.20;;;5.30;;
75535;SDS011;64119;52.070;20.804;2023-01-15T00:04:34;10.10;;;4.70;;
75535;SDS011;64119;52.070;20.804;2023-01-15T00:07:02;9.50;;;4.50;;
75535;SDS011;64119;52.070;20.804;2023-01-15T00:09:31;8.20;;;4.70;;
75535;SDS011;64119;52.070;20.804;2023-01-15T00:11:58;7.70;;;4.10;;
75535;SDS011;64119;52.070;20.804;2023-01-15T00:14:27;12.00;;;6.00;;
75535;SDS011;64119;52.070;20.804;2023-01-15T00:16:55;10.00;;;5.60;;
75535;SDS011;64119;52.070;20.804;2023-01-15T00:19:22;10.10;;;5.70;;
75535;SDS011;64119;52.070;20.804;2023-01-15T00:21:50;6.70;;;3.90;;
75535;SDS011;64119;52.070;20.804;2023-01-15T00:24:20;10.90;;;5.50;;
75535;SDS011;64119;52.070;20.804;2023-01-15T00:27:08;14.90;;;6.50;;
75535;SDS011;64119;52.070;20.804;2023-01-15T00:29:55;13.90;;;6.60;;
75535;SDS011;64119;52.070;20.804;2023-01-15T00:32:23;10.30;;;4.70;;
75535;SDS011;64119;52.070;20.804;2023-01-15T00:34:54;8.50;;;5.90;;
75535;SDS011;64119;52.070;20.804;2023-01-15T00:37:22;11.50;;;5.10;;
75535;SDS011;64119;52.070;20.804;2023-01-15T00:39:50;10.20;;;4.90;;
75535;SDS011;64119;52.070;20.804;2023-01-15T00:42:18;9.70;;;4.30;;
75535;SDS011;64119;52.070;20.804;2023-01-15T00:44:47;10.90;;;4.90;;
75535;SDS011;64119;52.070;20.804;2023-01-15T00:47:15;8.70;;;4.80;;
75535;SDS011;64119;52.070;20.804;2023-01-15T00:49:43;9.60;;;4.40;;
75535;SDS011;64119;52.070;20.804;2023-01-15T00:52:11;7.80;;;3.60;;
75535;SDS011;64119;52.070;20.804;2023-01-15T00:54:39;9.10;;;5.40;;
75535;SDS011;64119;52.070;20.804;2023-01-15T00:57:07;12.90;;;6.40;;
75535;SDS011;64119;52.070;20.804;2023-01-15T00:59:38;10.00;;;6.20;;
75535;SDS011;64119;52.070;20.804;2023-01-15T01:02:05;8.90;;;4.50;;
75535;SDS011;64119;52.070;20.804;2023-01-15T01:04:34;6.80;;;3.70;;
75535;SDS011;64119;52.070;20.804;2023-01-15T01:07:01;8.00;;;4.20;;
75535;SDS011;64119;52.070;20.804;2023-01-15T01:09:29;10.00;;;5.80;;
75535;SDS011;64119;52.070;20.804;2023-01-15T01:11:57;8.90;;;4.90;;
75535;SDS011;64119;52.070;20.804;2023-01-15T01:14:25;10.20;;;4.80;;
75535;SDS011;64119;52.070;20.804;2023-01-15T01:16:52;8.20;;;4.30;;
75535;SDS011;64119;52.070;20.804;2023-01-15T01:19:21;6.40;;;4.10;;
75535;SDS011;64119;52.070;20.804;2023-01-15T01:21:50;9.80;;;4.70;;
75535;SDS011;64119;52.070;20.804;2023-01-15T01:24:19;9.20;;;4.70;;
75535;SDS011;64119;52.070;20.804;2023-01-15T01:26:49;9.00;;;4.60;;
75535;SDS011;64119;52.070;20.804;2023-01-15T01:29:21;6.60;;;3.50;;
75535;SDS011;64119;52.070;20.804;2023-01-15T01:31:50;12.30;;;5.50;;
75535;SDS011;64119;52.070;20.804;2023-01-15T01:34:18;6.30;;;3.40;;
75535;SDS011;64119;52.070;20.804;2023-01-15T01:36:46;6.70;;;4.00;;
75535;SDS011;64119;52.070;20.804;2023-01-15T01:39:15;7.20;;;4.30;;
75535;SDS011;64119;52.070;20.804;2023-01-15T01:41:44;7.80;;;3.90;;
75535;SDS011;64119;52.070;20.804;2023-01-15T01:47:10;6.20;;;3.50;;
75535;SDS011;64119;52.070;20.804;2023-01-15T01:49:42;7.80;;;3.60;;
75535;SDS011;64119;52.070;20.804;2023-01-15T01:52:14;7.30;;;4.20;;
75535;SDS011;64119;52.070;20.804;2023-01-15T01:54:48;6.20;;;3.30;;
75535;SDS011;64119;52.070;20.804;2023-01-15T01:57:17;7.20;;;3.80;;
75535;SDS011;64119;52.070;20.804;2023-01-15T01:59:47;6.00;;;3.70;;
75535;SDS011;64119;52.070;20.804;2023-01-15T02:02:16;6.20;;;3.20;;
75535;SDS011;64119;52.070;20.804;2023-01-15T02:04:48;9.80;;;4.50;;
75535;SDS011;64119;52.070;20.804;2023-01-15T02:07:16;7.00;;;3.80;;
75535;SDS011;64119;52.070;20.804;2023-01-15T02:09:44;7.60;;;4.40;;
75535;SDS011;64119;52.070;20.804;2023-01-15T02:12:21;7.30;;;3.50;;
75535;SDS011;64119;52.070;20.804;2023-01-15T02:14:55;6.70;;;3.80;;
75535;SDS011;64119;52.070;20.804;2023-01-15T02:17:36;6.50;;;2.90;;
75535;SDS011;64119;52.070;20.804;2023-01-15T02:28:25;8.70;;;4.40;;
75535;SDS011;64119;52.070;20.804;2023-01-15T02:33:54;8.40;;;3.60;;
75535;SDS011;64119;52.070;20.804;2023-01-15T02:36:25;5.80;;;3.20;;
75535;SDS011;64119;52.070;20.804;2023-01-15T02:38:58;7.50;;;3.40;;
75535;SDS011;64119;52.070;20.804;2023-01-15T02:41:31;8.00;;;3.90;;
75535;SDS011;64119;52.070;20.804;2023-01-15T02:44:03;6.80;;;4.00;;
75535;SDS011;64119;52.070;20.804;2023-01-15T02:46:35;6.00;;;3.30;;
75535;SDS011;64119;52.070;20.804;2023-01-15T02:49:07;6.90;;;3.20;;
75535;SDS011;64119;52.070;20.804;2023-01-15T02:51:43;7.70;;;3.20;;
75535;SDS011;64119;52.070;20.804;2023-01-15T02:54:22;5.60;;;3.10;;
75535;SDS011;64119;52.070;20.804;2023-01-15T02:56:52;6.40;;;3.90;;
75535;SDS011;64119;52.070;20.804;2023-01-15T02:59:23;6.70;;;3.00;;
75535;SDS011;64119;52.070;20.804;2023-01-15T03:01:57;6.10;;;2.90;;
75535;SDS011;64119;52.070;20.804;2023-01-15T03:04:32;6.60;;;3.10;;
75535;SDS011;64119;52.070;20.804;2023-01-15T03:07:24;5.50;;;2.60;;
75535;SDS011;64119;52.070;20.804;2023-01-15T03:10:07;6.00;;;3.20;;
75535;SDS011;64119;52.070;20.804;2023-01-15T03:15:38;7.40;;;3.40;;
75535;SDS011;64119;52.070;20.804;2023-01-15T03:18:31;4.50;;;2.40;;
75535;SDS011;64119;52.070;20.804;2023-01-15T03:21:04;7.80;;;3.70;;
75535;SDS011;64119;52.070;20.804;2023-01-15T03:23:37;5.80;;;3.20;;
75535;SDS011;64119;52.070;20.804;2023-01-15T03:26:08;7.60;;;3.50;;
75535;SDS011;64119;52.070;20.804;2023-01-15T03:28:38;7.20;;;3.40;;
75535;SDS011;64119;52.070;20.804;2023-01-15T03:31:07;7.20;;;3.20;;
75535;SDS011;64119;52.070;20.804;2023-01-15T03:33:35;7.60;;;3.40;;
75535;SDS011;64119;52.070;20.804;2023-01-15T03:36:04;6.60;;;3.00;;
75535;SDS011;64119;52.070;20.804;2023-01-15T03:38:38;7.70;;;3.80;;
75535;SDS011;64119;52.070;20.804;2023-01-15T03:46:43;8.40;;;2.80;;
75535;SDS011;64119;52.070;20.804;2023-01-15T03:49:29;4.90;;;2.80;;
75535;SDS011;64119;52.070;20.804;2023-01-15T03:55:13;8.50;;;3.70;;
75535;SDS011;64119;52.070;20.804;2023-01-15T03:58:10;7.30;;;3.40;;
75535;SDS011;64119;52.070;20.804;2023-01-15T04:00:55;5.40;;;3.50;;
75535;SDS011;64119;52.070;20.804;2023-01-15T04:03:27;5.40;;;2.50;;
75535;SDS011;64119;52.070;20.804;2023-01-15T04:05:58;4.80;;;2.60;;
75535;SDS011;64119;52.070;20.804;2023-01-15T04:08:30;7.50;;;3.40;;
75535;SDS011;64119;52.070;20.804;2023-01-15T04:11:04;6.90;;;3.10;;
75535;SDS011;64119;52.070;20.804;2023-01-15T04:13:39;8.10;;;4.20;;
75535;SDS011;64119;52.070;20.804;2023-01-15T04:16:11;5.90;;;3.60;;
75535;SDS011;64119;52.070;20.804;2023-01-15T04:18:38;6.60;;;3.10;;
75535;SDS011;64119;52.070;20.804;2023-01-15T04:21:07;7.10;;;3.90;;
75535;SDS011;64119;52.070;20.804;2023-01-15T04:23:35;7.60;;;3.60;;
75535;SDS011;64119;52.070;20.804;2023-01-15T04:26:03;5.90;;;3.00;;
75535;SDS011;64119;52.070;20.804;2023-01-15T04:28:31;6.70;;;2.90;;
75535;SDS011;64119;52.070;20.804;2023-01-15T04:30:59;5.20;;;2.60;;
75535;SDS011;64119;52.070;20.804;2023-01-15T04:33:27;6.90;;;3.00;;
75535;SDS011;64119;52.070;20.804;2023-01-15T04:35:57;7.20;;;2.70;;
75535;SDS011;64119;52.070;20.804;2023-01-15T04:38:27;5.60;;;2.90;;
75535;SDS011;64119;52.070;20.804;2023-01-15T04:40:54;5.30;;;2.60;;
75535;SDS011;64119;52.070;20.804;2023-01-15T04:43:44;5.00;;;2.30;;
75535;SDS011;64119;52.070;20.804;2023-01-15T04:46:31;3.40;;;1.90;;
75535;SDS011;64119;52.070;20.804;2023-01-15T04:49:14;6.00;;;2.80;;
75535;SDS011;64119;52.070;20.804;2023-01-15T04:51:43;5.10;;;2.90;;
75535;SDS011;64119;52.070;20.804;2023-01-15T04:54:13;4.90;;;1.80;;
75535;SDS011;64119;52.070;20.804;2023-01-15T04:56:43;5.60;;;2.40;;
75535;SDS011;64119;52.070;20.804;2023-01-15T04:59:14;4.10;;;2.10;;
75535;SDS011;64119;52.070;20.804;2023-01-15T05:01:42;5.40;;;2.50;;
75535;SDS011;64119;52.070;20.804;2023-01-15T05:04:29;4.70;;;2.10;;
75535;SDS011;64119;52.070;20.804;2023-01-15T05:06:57;5.20;;;2.70;;
75535;SDS011;64119;52.070;20.804;2023-01-15T05:09:25;5.30;;;2.20;;
75535;SDS011;64119;52.070;20.804;2023-01-15T05:11:53;5.30;;;1.90;;
75535;SDS011;64119;52.070;20.804;2023-01-15T05:14:20;5.00;;;2.40;;
75535;SDS011;64119;52.070;20.804;2023-01-15T05:16:48;4.30;;;2.10;;
75535;SDS011;64119;52.070;20.804;2023-01-15T05:19:16;4.80;;;1.90;;
75535;SDS011;64119;52.070;20.804;2023-01-15T05:21:44;3.60;;;1.70;;
75535;SDS011;64119;52.070;20.804;2023-01-15T05:24:12;3.60;;;2.00;;
75535;SDS011;64119;52.070;20.804;2023-01-15T05:26:42;6.90;;;2.20;;
75535;SDS011;64119;52.070;20.804;2023-01-15T05:29:11;3.70;;;2.40;;
75535;SDS011;64119;52.070;20.804;2023-01-15T05:31:40;4.80;;;2.30;;
75535;SDS011;64119;52.070;20.804;2023-01-15T05:34:09;3.60;;;1.60;;
75535;SDS011;64119;52.070;20.804;2023-01-15T05:36:37;4.30;;;2.30;;
75535;SDS011;64119;52.070;20.804;2023-01-15T05:39:05;4.30;;;2.20;;
75535;SDS011;64119;52.070;20.804;2023-01-15T05:41:33;3.80;;;2.10;;
75535;SDS011;64119;52.070;20.804;2023-01-15T05:44:18;3.30;;;1.70;;
75535;SDS011;64119;52.070;20.804;2023-01-15T05:46:48;3.00;;;1.70;;
75535;SDS011;64119;52.070;20.804;2023-01-15T05:51:47;2.50;;;1.50;;
75535;SDS011;64119;52.070;20.804;2023-01-15T05:54:16;2.40;;;1.30;;
75535;SDS011;64119;52.070;20.804;2023-01-15T05:56:46;4.00;;;1.70;;
75535;SDS011;64119;52.070;20.804;2023-01-15T05:59:16;3.80;;;1.70;;
75535;SDS011;64119;52.070;20.804;2023-01-15T06:01:45;3.20;;;1.80;;
75535;SDS011;64119;52.070;20.804;2023-01-15T06:04:13;3.70;;;1.60;;
75535;SDS011;64119;52.070;20.804;2023-01-15T06:06:42;2.60;;;1.30;;
75535;SDS011;64119;52.070;20.804;2023-01-15T06:09:10;2.10;;;1.30;;
75535;SDS011;64119;52.070;20.804;2023-01-15T06:11:37;4.60;;;1.50;;
75535;SDS011;64119;52.070;20.804;2023-01-15T06:14:05;3.00;;;1.70;;
75535;SDS011;64119;52.070;20.804;2023-01-15T06:16:34;3.20;;;1.40;;
75535;SDS011;64119;52.070;20.804;2023-01-15T06:19:02;4.30;;;1.40;;
75535;SDS011;64119;52.070;20.804;2023-01-15T06:21:31;3.30;;;1.60;;
75535;SDS011;64119;52.070;20.804;2023-01-15T06:26:29;3.50;;;1.20;;
75535;SDS011;64119;52.070;20.804;2023-01-15T06:28:56;2.30;;;1.10;;
75535;SDS011;64119;52.070;20.804;2023-01-15T06:31:24;3.60;;;1.60;;
75535;SDS011;64119;52.070;20.804;2023-01-15T06:33:55;3.60;;;1.60;;
75535;SDS011;64119;52.070;20.804;2023-01-15T06:36:24;2.30;;;1.10;;
75535;SDS011;64119;52.070;20.804;2023-01-15T06:38:53;2.80;;;1.40;;
75535;SDS011;64119;52.070;20.804;2023-01-15T06:41:23;2.30;;;1.20;;
75535;SDS011;64119;52.070;20.804;2023-01-15T06:44:17;4.50;;;1.70;;
75535;SDS011;64119;52.070;20.804;2023-01-15T06:47:13;4.00;;;1.80;;
75535;SDS011;64119;52.070;20.804;2023-01-15T06:52:22;3.60;;;1.70;;
75535;SDS011;64119;52.070;20.804;2023-01-15T06:54:52;4.40;;;2.00;;
75535;SDS011;64119;52.070;20.804;2023-01-15T06:57:20;5.30;;;2.20;;
75535;SDS011;64119;52.070;20.804;2023-01-15T06:59:49;3.90;;;1.90;;
75535;SDS011;64119;52.070;20.804;2023-01-15T07:02:17;5.50;;;2.00;;
75535;SDS011;64119;52.070;20.804;2023-01-15T07:04:46;3.90;;;1.50;;
75535;SDS011;64119;52.070;20.804;2023-01-15T07:07:16;2.50;;;1.40;;
75535;SDS011;64119;52.070;20.804;2023-01-15T07:09:45;6.70;;;1.90;;
75535;SDS011;64119;52.070;20.804;2023-01-15T07:12:13;3.50;;;1.50;;
75535;SDS011;64119;52.070;20.804;2023-01-15T07:14:41;3.00;;;1.90;;
75535;SDS011;64119;52.070;20.804;2023-01-15T07:17:08;3.80;;;1.50;;
75535;SDS011;64119;52.070;20.804;2023-01-15T07:19:37;3.30;;;1.40;;
75535;SDS011;64119;52.070;20.804;2023-01-15T07:22:05;4.90;;;1.70;;
75535;SDS011;64119;52.070;20.804;2023-01-15T07:24:34;2.60;;;1.30;;
75535;SDS011;64119;52.070;20.804;2023-01-15T07:27:01;2.60;;;1.20;;
75535;SDS011;64119;52.070;20.804;2023-01-15T07:29:30;2.00;;;1.00;;
75535;SDS011;64119;52.070;20.804;2023-01-15T07:31:58;3.20;;;1.40;;
75535;SDS011;64119;52.070;20.804;2023-01-15T07:34:27;3.60;;;1.80;;
75535;SDS011;64119;52.070;20.804;2023-01-15T07:36:55;2.40;;;1.60;;
75535;SDS011;64119;52.070;20.804;2023-01-15T07:39:23;2.30;;;1.40;;
75535;SDS011;64119;52.070;20.804;2023-01-15T07:41:50;3.30;;;1.50;;
75535;SDS011;64119;52.070;20.804;2023-01-15T07:44:37;4.40;;;1.60;;
75535;SDS011;64119;52.070;20.804;2023-01-15T07:47:24;2.70;;;1.60;;
75535;SDS011;64119;52.070;20.804;2023-01-15T07:52:41;2.50;;;1.40;;
75535;SDS011;64119;52.070;20.804;2023-01-15T07:55:09;2.70;;;1.70;;
75535;SDS011;64119;52.070;20.804;2023-01-15T07:57:39;1.90;;;1.20;;
75535;SDS011;64119;52.070;20.804;2023-01-15T08:00:09;3.30;;;1.70;;
75535;SDS011;64119;52.070;20.804;2023-01-15T08:02:39;2.40;;;1.60;;
75535;SDS011;64119;52.070;20.804;2023-01-15T08:05:08;4.00;;;1.60;;
75535;SDS011;64119;52.070;20.804;2023-01-15T08:07:38;4.60;;;2.40;;
75535;SDS011;64119;52.070;20.804;2023-01-15T08:10:07;2.70;;;1.50;;
75535;SDS011;64119;52.070;20.804;2023-01-15T08:12:37;2.50;;;1.30;;
75535;SDS011;64119;52.070;20.804;2023-01-15T08:15:24;3.20;;;1.70;;
75535;SDS011;64119;52.070;20.804;2023-01-15T08:17:52;3.50;;;1.60;;
75535;SDS011;64119;52.070;20.804;2023-01-15T08:20:24;3.40;;;1.80;;
75535;SDS011;64119;52.070;20.804;2023-01-15T08:22:52;2.60;;;1.30;;
75535;SDS011;64119;52.070;20.804;2023-01-15T08:25:21;3.20;;;1.40;;
75535;SDS011;64119;52.070;20.804;2023-01-15T08:27:52;3.20;;;1.70;;
75535;SDS011;64119;52.070;20.804;2023-01-15T08:30:22;3.50;;;1.20;;
75535;SDS011;64119;52.070;20.804;2023-01-15T08:32:51;3.40;;;1.60;;
75535;SDS011;64119;52.070;20.804;2023-01-15T08:35:19;2.50;;;1.20;;
75535;SDS011;64119;52.070;20.804;2023-01-15T08:37:47;3.00;;;1.70;;
75535;SDS011;64119;52.070;20.804;2023-01-15T08:40:15;2.70;;;1.10;;
75535;SDS011;64119;52.070;20.804;2023-01-15T08:42:42;4.50;;;2.00;;
75535;SDS011;64119;52.070;20.804;2023-01-15T08:45:10;2.90;;;1.70;;
75535;SDS011;64119;52.070;20.804;2023-01-15T08:47:38;2.90;;;1.50;;
75535;SDS011;64119;52.070;20.804;2023-01-15T08:50:06;3.20;;;1.70;;
75535;SDS011;64119;52.070;20.804;2023-01-15T08:52:36;3.30;;;1.80;;
75535;SDS011;64119;52.070;20.804;2023-01-15T08:55:05;3.20;;;1.40;;
75535;SDS011;64119;52.070;20.804;2023-01-15T08:57:34;4.20;;;1.60;;
75535;SDS011;64119;52.070;20.804;2023-01-15T09:00:02;3.40;;;1.80;;
75535;SDS011;64119;52.070;20.804;2023-01-15T09:02:30;3.50;;;1.90;;
75535;SDS011;64119;52.070;20.804;2023-01-15T09:04:58;2.90;;;1.80;;
75535;SDS011;64119;52.070;20.804;2023-01-15T09:07:26;2.90;;;1.80;;
75535;SDS011;64119;52.070;20.804;2023-01-15T09:09:54;2.10;;;1.40;;
75535;SDS011;64119;52.070;20.804;2023-01-15T09:12:21;2.50;;;1.30;;
75535;SDS011;64119;52.070;20.804;2023-01-15T09:14:51;3.40;;;1.30;;
75535;SDS011;64119;52.070;20.804;2023-01-15T09:17:29;4.00;;;1.80;;
75535;SDS011;64119;52.070;20.804;2023-01-15T09:19:58;1.70;;;1.00;;
75535;SDS011;64119;52.070;20.804;2023-01-15T09:22:26;3.30;;;1.50;;
75535;SDS011;64119;52.070;20.804;2023-01-15T09:24:56;2.90;;;1.60;;
75535;SDS011;64119;52.070;20.804;2023-01-15T09:27:25;3.00;;;1.10;;
75535;SDS011;64119;52.070;20.804;2023-01-15T09:29:54;2.70;;;1.20;;
75535;SDS011;64119;52.070;20.804;2023-01-15T09:32:23;3.40;;;1.40;;
75535;SDS011;64119;52.070;20.804;2023-01-15T09:34:50;2.30;;;1.20;;
75535;SDS011;64119;52.070;20.804;2023-01-15T09:37:18;3.30;;;1.50;;
75535;SDS011;64119;52.070;20.804;2023-01-15T09:39:46;2.30;;;1.30;;
75535;SDS011;64119;52.070;20.804;2023-01-15T09:42:19;2.50;;;1.30;;
75535;SDS011;64119;52.070;20.804;2023-01-15T09:56:26;2.10;;;1.10;;
75535;SDS011;64119;52.070;20.804;2023-01-15T09:58:56;2.50;;;1.40;;
75535;SDS011;64119;52.070;20.804;2023-01-15T10:01:28;2.10;;;1.30;;
75535;SDS011;64119;52.070;20.804;2023-01-15T10:06:50;4.90;;;1.60;;
75535;SDS011;64119;52.070;20.804;2023-01-15T10:09:28;2.80;;;1.30;;
75535;SDS011;64119;52.070;20.804;2023-01-15T10:12:06;3.90;;;1.30;;
75535;SDS011;64119;52.070;20.804;2023-01-15T10:18:11;3.10;;;1.50;;
75535;SDS011;64119;52.070;20.804;2023-01-15T10:20:47;4.50;;;1.60;;
75535;SDS011;64119;52.070;20.804;2023-01-15T10:29:02;3.20;;;1.50;;
75535;SDS011;64119;52.070;20.804;2023-01-15T10:34:24;2.50;;;1.50;;
75535;SDS011;64119;52.070;20.804;2023-01-15T10:47:39;2.30;;;1.20;;
75535;SDS011;64119;52.070;20.804;2023-01-15T10:50:18;2.50;;;1.10;;
75535;SDS011;64119;52.070;20.804;2023-01-15T10:52:49;3.10;;;1.30;;
75535;SDS011;64119;52.070;20.804;2023-01-15T10:55:31;3.00;;;1.40;;
75535;SDS011;64119;52.070;20.804;2023-01-15T10:58:10;4.10;;;1.20;;
75535;SDS011;64119;52.070;20.804;2023-01-15T11:00:45;2.90;;;1.30;;
75535;SDS011;64119;52.070;20.804;2023-01-15T11:06:33;3.30;;;1.60;;
75535;SDS011;64119;52.070;20.804;2023-01-15T11:09:02;4.00;;;1.50;;
75535;SDS011;64119;52.070;20.804;2023-01-15T11:14:31;3.30;;;1.40;;
75535;SDS011;64119;52.070;20.804;2023-01-15T11:17:18;2.90;;;1.70;;
75535;SDS011;64119;52.070;20.804;2023-01-15T11:20:15;2.40;;;1.30;;
75535;SDS011;64119;52.070;20.804;2023-01-15T11:22:51;2.60;;;1.60;;
75535;SDS011;64119;52.070;20.804;2023-01-15T11:25:27;2.80;;;1.70;;
75535;SDS011;64119;52.070;20.804;2023-01-15T11:27:57;3.30;;;1.80;;
75535;SDS011;64119;52.070;20.804;2023-01-15T11:30:30;3.00;;;1.50;;
75535;SDS011;64119;52.070;20.804;2023-01-15T11:33:01;3.50;;;1.70;;
75535;SDS011;64119;52.070;20.804;2023-01-15T11:35:33;3.40;;;1.50;;
75535;SDS011;64119;52.070;20.804;2023-01-15T11:38:02;3.50;;;1.40;;
75535;SDS011;64119;52.070;20.804;2023-01-15T11:40:31;2.20;;;0.90;;
75535;SDS011;64119;52.070;20.804;2023-01-15T11:42:59;3.20;;;1.70;;
75535;SDS011;64119;52.070;20.804;2023-01-15T11:45:46;2.70;;;1.50;;
75535;SDS011;64119;52.070;20.804;2023-01-15T11:48:46;3.60;;;1.60;;
75535;SDS011;64119;52.070;20.804;2023-01-15T11:51:43;1.60;;;1.10;;
75535;SDS011;64119;52.070;20.804;2023-01-15T11:54:15;2.50;;;1.30;;
75535;SDS011;64119;52.070;20.804;2023-01-15T11:56:44;3.40;;;1.50;;
75535;SDS011;64119;52.070;20.804;2023-01-15T11:59:12;3.30;;;1.40;;
75535;SDS011;64119;52.070;20.804;2023-01-15T12:01:49;4.40;;;1.80;;
75535;SDS011;64119;52.070;20.804;2023-01-15T12:04:34;4.20;;;2.00;;
75535;SDS011;64119;52.070;20.804;2023-01-15T12:07:05;3.80;;;1.60;;
75535;SDS011;64119;52.070;20.804;2023-01-15T12:28:49;4.90;;;1.60;;
75535;SDS011;64119;52.070;20.804;2023-01-15T12:31:24;2.90;;;1.80;;
75535;SDS011;64119;52.070;20.804;2023-01-15T12:34:12;2.70;;;1.70;;
75535;SDS011;64119;52.070;20.804;2023-01-15T12:37:02;4.40;;;1.80;;
75535;SDS011;64119;52.070;20.804;2023-01-15T12:39:37;4.00;;;1.60;;
75535;SDS011;64119;52.070;20.804;2023-01-15T12:42:16;2.70;;;1.50;;
75535;SDS011;64119;52.070;20.804;2023-01-15T12:45:27;3.40;;;1.60;;
75535;SDS011;64119;52.070;20.804;2023-01-15T12:48:03;5.00;;;2.10;;
75535;SDS011;64119;52.070;20.804;2023-01-15T12:50:45;5.40;;;2.40;;
75535;SDS011;64119;52.070;20.804;2023-01-15T12:58:43;3.50;;;1.90;;
75535;SDS011;64119;52.070;20.804;2023-01-15T13:01:20;3.40;;;1.60;;
75535;SDS011;64119;52.070;20.804;2023-01-15T13:03:59;4.10;;;2.00;;
75535;SDS011;64119;52.070;20.804;2023-01-15T13:06:41;4.00;;;1.90;;
75535;SDS011;64119;52.070;20.804;2023-01-15T13:09:27;2.70;;;1.60;;
75535;SDS011;64119;52.070;20.804;2023-01-15T13:12:08;3.40;;;1.40;;
75535;SDS011;64119;52.070;20.804;2023-01-15T13:14:38;5.70;;;2.10;;
75535;SDS011;64119;52.070;20.804;2023-01-15T13:17:22;2.20;;;1.50;;
75535;SDS011;64119;52.070;20.804;2023-01-15T13:23:08;3.70;;;2.10;;
75535;SDS011;64119;52.070;20.804;2023-01-15T13:28:47;3.40;;;2.00;;
75535;SDS011;64119;52.070;20.804;2023-01-15T13:31:27;4.50;;;2.00;;
75535;SDS011;64119;52.070;20.804;2023-01-15T13:34:06;2.90;;;1.30;;
75535;SDS011;64119;52.070;20.804;2023-01-15T13:39:16;3.00;;;1.40;;
75535;SDS011;64119;52.070;20.804;2023-01-15T13:41:48;2.20;;;1.50;;
75535;SDS011;64119;52.070;20.804;2023-01-15T13:44:38;2.80;;;1.70;;
75535;SDS011;64119;52.070;20.804;2023-01-15T13:47:17;3.10;;;1.60;;
75535;SDS011;64119;52.070;20.804;2023-01-15T13:49:55;3.90;;;1.80;;
75535;SDS011;64119;52.070;20.804;2023-01-15T13:52:34;3.00;;;1.40;;
75535;SDS011;64119;52.070;20.804;2023-01-15T13:55:08;3.90;;;1.80;;
75535;SDS011;64119;52.070;20.804;2023-01-15T13:57:42;3.40;;;1.80;;
75535;SDS011;64119;52.070;20.804;2023-01-15T14:03:22;2.60;;;1.70;;
75535;SDS011;64119;52.070;20.804;2023-01-15T14:06:04;3.50;;;1.60;;
75535;SDS011;64119;52.070;20.804;2023-01-15T14:11:04;4.60;;;2.00;;
75535;SDS011;64119;52.070;20.804;2023-01-15T14:13:51;2.70;;;1.70;;
75535;SDS011;64119;52.070;20.804;2023-01-15T14:22:51;3.80;;;2.00;;
75535;SDS011;64119;52.070;20.804;2023-01-15T14:34:24;4.10;;;1.90;;
75535;SDS011;64119;52.070;20.804;2023-01-15T14:37:01;3.60;;;2.20;;
75535;SDS011;64119;52.070;20.804;2023-01-15T14:45:07;2.30;;;1.20;;
75535;SDS011;64119;52.070;20.804;2023-01-15T14:47:48;3.10;;;1.60;;
75535;SDS011;64119;52.070;20.804;2023-01-15T14:52:54;3.30;;;1.70;;
75535;SDS011;64119;52.070;20.804;2023-01-15T14:55:27;4.90;;;2.00;;
75535;SDS011;64119;52.070;20.804;2023-01-15T14:58:00;3.10;;;1.80;;
75535;SDS011;64119;52.070;20.804;2023-01-15T15:00:35;3.90;;;2.00;;
75535;SDS011;64119;52.070;20.804;2023-01-15T15:03:13;6.10;;;3.70;;
75535;SDS011;64119;52.070;20.804;2023-01-15T15:05:44;4.80;;;2.80;;
75535;SDS011;64119;52.070;20.804;2023-01-15T15:10:43;3.50;;;1.90;;
75535;SDS011;64119;52.070;20.804;2023-01-15T15:18:44;4.90;;;2.80;;
75535;SDS011;64119;52.070;20.804;2023-01-15T15:21:20;3.50;;;2.20;;
75535;SDS011;64119;52.070;20.804;2023-01-15T15:24:04;6.20;;;1.90;;
75535;SDS011;64119;52.070;20.804;2023-01-15T15:26:34;4.30;;;2.30;;
75535;SDS011;64119;52.070;20.804;2023-01-15T15:31:34;3.50;;;1.90;;
75535;SDS011;64119;52.070;20.804;2023-01-15T15:34:30;6.40;;;2.20;;
75535;SDS011;64119;52.070;20.804;2023-01-15T15:37:00;4.80;;;1.70;;
75535;SDS011;64119;52.070;20.804;2023-01-15T15:42:12;4.50;;;2.40;;
75535;SDS011;64119;52.070;20.804;2023-01-15T15:45:16;3.50;;;1.70;;
75535;SDS011;64119;52.070;20.804;2023-01-15T15:51:22;6.80;;;2.50;;
75535;SDS011;64119;52.070;20.804;2023-01-15T15:57:27;4.10;;;2.20;;
75535;SDS011;64119;52.070;20.804;2023-01-15T15:59:49;4.60;;;2.90;;
75535;SDS011;64119;52.070;20.804;2023-01-15T16:08:09;5.50;;;2.80;;
75535;SDS011;64119;52.070;20.804;2023-01-15T16:10:48;4.90;;;2.20;;
75535;SDS011;64119;52.070;20.804;2023-01-15T16:13:22;6.00;;;3.10;;
75535;SDS011;64119;52.070;20.804;2023-01-15T16:15:54;4.90;;;2.60;;
75535;SDS011;64119;52.070;20.804;2023-01-15T16:18:30;4.10;;;2.50;;
75535;SDS011;64119;52.070;20.804;2023-01-15T16:21:01;5.10;;;2.90;;
75535;SDS011;64119;52.070;20.804;2023-01-15T16:23:29;5.60;;;2.80;;
75535;SDS011;64119;52.070;20.804;2023-01-15T16:28:58;3.80;;;1.80;;
75535;SDS011;64119;52.070;20.804;2023-01-15T16:31:33;4.20;;;2.20;;
75535;SDS011;64119;52.070;20.804;2023-01-15T16:34:02;4.30;;;2.30;;
75535;SDS011;64119;52.070;20.804;2023-01-15T16:36:38;6.10;;;2.70;;
75535;SDS011;64119;52.070;20.804;2023-01-15T16:39:16;5.30;;;2.60;;
75535;SDS011;64119;52.070;20.804;2023-01-15T16:41:48;5.20;;;3.00;;
75535;SDS011;64119;52.070;20.804;2023-01-15T16:44:24;5.10;;;3.30;;
75535;SDS011;64119;52.070;20.804;2023-01-15T16:46:53;4.50;;;2.20;;
75535;SDS011;64119;52.070;20.804;2023-01-15T16:49:25;5.30;;;2.70;;
75535;SDS011;64119;52.070;20.804;2023-01-15T16:51:55;5.80;;;2.70;;
75535;SDS011;64119;52.070;20.804;2023-01-15T17:04:37;5.20;;;3.10;;
75535;SDS011;64119;52.070;20.804;2023-01-15T17:09:44;6.40;;;2.90;;
75535;SDS011;64119;52.070;20.804;2023-01-15T17:12:17;7.00;;;3.20;;
75535;SDS011;64119;52.070;20.804;2023-01-15T17:14:52;8.00;;;4.30;;
75535;SDS011;64119;52.070;20.804;2023-01-15T17:19:48;7.20;;;3.70;;
75535;SDS011;64119;52.070;20.804;2023-01-15T17:24:53;6.00;;;2.40;;
75535;SDS011;64119;52.070;20.804;2023-01-15T17:27:23;8.00;;;3.10;;
75535;SDS011;64119;52.070;20.804;2023-01-15T17:29:52;7.00;;;3.20;;
75535;SDS011;64119;52.070;20.804;2023-01-15T17:32:23;5.60;;;3.00;;
75535;SDS011;64119;52.070;20.804;2023-01-15T17:34:56;9.10;;;3.70;;
75535;SDS011;64119;52.070;20.804;2023-01-15T17:37:24;8.70;;;4.00;;
75535;SDS011;64119;52.070;20.804;2023-01-15T17:39:52;5.80;;;3.40;;
75535;SDS011;64119;52.070;20.804;2023-01-15T17:42:20;7.40;;;3.70;;
75535;SDS011;64119;52.070;20.804;2023-01-15T17:44:48;7.40;;;3.40;;
75535;SDS011;64119;52.070;20.804;2023-01-15T17:47:16;7.40;;;3.70;;
75535;SDS011;64119;52.070;20.804;2023-01-15T17:49:43;7.90;;;3.80;;
75535;SDS011;64119;52.070;20.804;2023-01-15T17:52:14;8.10;;;3.40;;
75535;SDS011;64119;52.070;20.804;2023-01-15T17:54:45;6.20;;;3.40;;
75535;SDS011;64119;52.070;20.804;2023-01-15T17:57:31;8.60;;;3.90;;
75535;SDS011;64119;52.070;20.804;2023-01-15T18:00:17;6.50;;;3.30;;
75535;SDS011;64119;52.070;20.804;2023-01-15T18:06:42;8.10;;;3.80;;
75535;SDS011;64119;52.070;20.804;2023-01-15T18:09:12;6.00;;;3.60;;
75535;SDS011;64119;52.070;20.804;2023-01-15T18:11:39;6.20;;;4.30;;
75535;SDS011;64119;52.070;20.804;2023-01-15T18:14:06;8.40;;;4.10;;
75535;SDS011;64119;52.070;20.804;2023-01-15T18:16:32;8.70;;;4.50;;
75535;SDS011;64119;52.070;20.804;2023-01-15T18:18:59;10.80;;;5.00;;